sensor_id;sensor_type;location;lat;lon;timestamp;P1;durP1;ratioP1;P2;durP2;ratioP2
48578;SDS011;34357;51.948;6.132;2024-02-21T00:00:46;42.15;;;17.02;;
48578;SDS011;34357;51.948;6.132;2024-02-21T00:03:12;41.35;;;17.70;;
48578;SDS011;34357;51.948;6.132;2024-02-21T00:05:38;38.15;;;17.65;;
48578;SDS011;34357;51.948;6.132;2024-02-21T00:08:03;37.50;;;17.13;;
48578;SDS011;34357;51.948;6.132;2024-02-21T00:10:29;47.50;;;17.52;;
48578;SDS011;34357;51.948;6.132;2024-02-21T00:12:57;39.50;;;18.42;;
48578;SDS011;34357;51.948;6.132;2024-02-21T00:15:25;38.08;;;17.48;;
48578;SDS011;34357;51.948;6.132;2024-02-21T00:17:51;37.53;;;15.95;;
48578;SDS011;34357;51.948;6.132;2024-02-21T00:20:16;41.17;;;17.27;;
48578;SDS011;34357;51.948;6.132;2024-02-21T00:22:43;41.78;;;18.63;;
48578;SDS011;34357;51.948;6.132;2024-02-21T00:25:09;44.70;;;18.83;;
48578;SDS011;34357;51.948;6.132;2024-02-21T00:27:35;40.95;;;16.75;;
48578;SDS011;34357;51.948;6.132;2024-02-21T00:30:01;34.70;;;17.35;;
48578;SDS011;34357;51.948;6.132;2024-02-21T00:32:27;41.53;;;18.27;;
48578;SDS011;34357;51.948;6.132;2024-02-21T00:34:53;41.55;;;17.52;;
48578;SDS011;34357;51.948;6.132;2024-02-21T00:37:18;43.00;;;18.10;;
48578;SDS011;34357;51.948;6.132;2024-02-21T00:39:44;35.97;;;17.80;;
48578;SDS011;34357;51.948;6.132;2024-02-21T00:42:10;41.88;;;17.42;;
48578;SDS011;34357;51.948;6.132;2024-02-21T00:44:35;37.00;;;17.13;;
48578;SDS011;34357;51.948;6.132;2024-02-21T00:47:01;42.50;;;18.35;;
48578;SDS011;34357;51.948;6.132;2024-02-21T00:49:27;39.08;;;17.75;;
48578;SDS011;34357;51.948;6.132;2024-02-21T00:51:52;39.35;;;17.40;;
48578;SDS011;34357;51.948;6.132;2024-02-21T00:54:18;34.53;;;17.40;;
48578;SDS011;34357;51.948;6.132;2024-02-21T00:56:44;40.30;;;16.83;;
48578;SDS011;34357;51.948;6.132;2024-02-21T00:59:10;42.22;;;18.13;;
48578;SDS011;34357;51.948;6.132;2024-02-21T01:01:36;43.08;;;18.30;;
48578;SDS011;34357;51.948;6.132;2024-02-21T01:04:01;43.70;;;18.42;;
48578;SDS011;34357;51.948;6.132;2024-02-21T01:06:27;40.00;;;18.45;;
48578;SDS011;34357;51.948;6.132;2024-02-21T01:08:54;38.83;;;17.65;;
48578;SDS011;34357;51.948;6.132;2024-02-21T01:11:19;36.67;;;19.02;;
48578;SDS011;34357;51.948;6.132;2024-02-21T01:13:45;38.60;;;18.88;;
48578;SDS011;34357;51.948;6.132;2024-02-21T01:16:11;48.10;;;19.13;;
48578;SDS011;34357;51.948;6.132;2024-02-21T01:18:37;37.70;;;17.30;;
48578;SDS011;34357;51.948;6.132;2024-02-21T01:21:05;39.00;;;17.38;;
48578;SDS011;34357;51.948;6.132;2024-02-21T01:23:35;39.05;;;20.38;;
48578;SDS011;34357;51.948;6.132;2024-02-21T01:26:01;37.83;;;18.35;;
48578;SDS011;34357;51.948;6.132;2024-02-21T01:28:27;37.92;;;19.45;;
48578;SDS011;34357;51.948;6.132;2024-02-21T01:30:53;40.97;;;17.52;;
48578;SDS011;34357;51.948;6.132;2024-02-21T01:33:18;41.00;;;18.42;;
48578;SDS011;34357;51.948;6.132;2024-02-21T01:35:44;36.63;;;18.02;;
48578;SDS011;34357;51.948;6.132;2024-02-21T01:38:12;46.15;;;17.25;;
48578;SDS011;34357;51.948;6.132;2024-02-21T01:40:38;34.35;;;17.10;;
48578;SDS011;34357;51.948;6.132;2024-02-21T01:43:06;35.63;;;17.52;;
48578;SDS011;34357;51.948;6.132;2024-02-21T01:45:42;38.67;;;16.75;;
48578;SDS011;34357;51.948;6.132;2024-02-21T01:48:08;34.70;;;16.90;;
48578;SDS011;34357;51.948;6.132;2024-02-21T01:50:34;38.95;;;16.50;;
48578;SDS011;34357;51.948;6.132;2024-02-21T01:52:59;40.78;;;17.77;;
48578;SDS011;34357;51.948;6.132;2024-02-21T01:55:25;33.20;;;15.70;;
48578;SDS011;34357;51.948;6.132;2024-02-21T01:57:55;38.55;;;16.48;;
48578;SDS011;34357;51.948;6.132;2024-02-21T02:00:21;29.25;;;15.82;;
48578;SDS011;34357;51.948;6.132;2024-02-21T02:02:48;33.25;;;16.10;;
48578;SDS011;34357;51.948;6.132;2024-02-21T02:05:14;38.65;;;16.95;;
48578;SDS011;34357;51.948;6.132;2024-02-21T02:07:43;34.45;;;17.00;;
48578;SDS011;34357;51.948;6.132;2024-02-21T02:10:09;36.38;;;17.05;;
48578;SDS011;34357;51.948;6.132;2024-02-21T02:12:35;42.13;;;17.33;;
48578;SDS011;34357;51.948;6.132;2024-02-21T02:15:02;42.08;;;15.82;;
48578;SDS011;34357;51.948;6.132;2024-02-21T02:17:31;27.85;;;15.93;;
48578;SDS011;34357;51.948;6.132;2024-02-21T02:19:57;36.28;;;17.23;;
48578;SDS011;34357;51.948;6.132;2024-02-21T02:22:24;37.78;;;14.93;;
48578;SDS011;34357;51.948;6.132;2024-02-21T02:24:57;31.17;;;16.02;;
48578;SDS011;34357;51.948;6.132;2024-02-21T02:27:23;32.30;;;16.55;;
48578;SDS011;34357;51.948;6.132;2024-02-21T02:29:49;32.33;;;16.02;;
48578;SDS011;34357;51.948;6.132;2024-02-21T02:32:16;35.03;;;16.30;;
48578;SDS011;34357;51.948;6.132;2024-02-21T02:34:41;37.22;;;15.88;;
48578;SDS011;34357;51.948;6.132;2024-02-21T02:37:07;34.28;;;16.13;;
48578;SDS011;34357;51.948;6.132;2024-02-21T02:39:33;35.03;;;15.00;;
48578;SDS011;34357;51.948;6.132;2024-02-21T02:41:58;32.97;;;14.32;;
48578;SDS011;34357;51.948;6.132;2024-02-21T02:44:25;33.67;;;15.25;;
48578;SDS011;34357;51.948;6.132;2024-02-21T02:46:50;33.67;;;15.27;;
48578;SDS011;34357;51.948;6.132;2024-02-21T02:49:16;30.52;;;13.95;;
48578;SDS011;34357;51.948;6.132;2024-02-21T02:51:42;33.40;;;13.90;;
48578;SDS011;34357;51.948;6.132;2024-02-21T02:54:08;28.13;;;14.48;;
48578;SDS011;34357;51.948;6.132;2024-02-21T02:56:34;34.83;;;14.38;;
48578;SDS011;34357;51.948;6.132;2024-02-21T02:59:00;29.70;;;14.65;;
48578;SDS011;34357;51.948;6.132;2024-02-21T03:01:26;32.78;;;14.50;;
48578;SDS011;34357;51.948;6.132;2024-02-21T03:03:52;35.22;;;14.70;;
48578;SDS011;34357;51.948;6.132;2024-02-21T03:06:19;34.58;;;14.98;;
48578;SDS011;34357;51.948;6.132;2024-02-21T03:08:44;27.30;;;13.82;;
48578;SDS011;34357;51.948;6.132;2024-02-21T03:11:10;33.08;;;14.20;;
48578;SDS011;34357;51.948;6.132;2024-02-21T03:13:36;30.70;;;13.00;;
48578;SDS011;34357;51.948;6.132;2024-02-21T03:16:02;28.98;;;13.15;;
48578;SDS011;34357;51.948;6.132;2024-02-21T03:18:28;29.30;;;13.52;;
48578;SDS011;34357;51.948;6.132;2024-02-21T03:20:53;30.48;;;12.27;;
48578;SDS011;34357;51.948;6.132;2024-02-21T03:23:19;34.78;;;12.75;;
48578;SDS011;34357;51.948;6.132;2024-02-21T03:25:45;28.23;;;12.45;;
48578;SDS011;34357;51.948;6.132;2024-02-21T03:28:11;29.63;;;11.48;;
48578;SDS011;34357;51.948;6.132;2024-02-21T03:30:37;29.83;;;11.73;;
48578;SDS011;34357;51.948;6.132;2024-02-21T03:33:03;28.95;;;11.43;;
48578;SDS011;34357;51.948;6.132;2024-02-21T03:35:29;23.23;;;10.90;;
48578;SDS011;34357;51.948;6.132;2024-02-21T03:37:54;23.42;;;10.50;;
48578;SDS011;34357;51.948;6.132;2024-02-21T03:40:20;27.10;;;12.13;;
48578;SDS011;34357;51.948;6.132;2024-02-21T03:42:46;30.08;;;11.75;;
48578;SDS011;34357;51.948;6.132;2024-02-21T03:45:12;30.20;;;12.57;;
48578;SDS011;34357;51.948;6.132;2024-02-21T03:47:37;23.90;;;10.38;;
48578;SDS011;34357;51.948;6.132;2024-02-21T03:50:03;30.60;;;11.43;;
48578;SDS011;34357;51.948;6.132;2024-02-21T03:52:31;29.73;;;11.25;;
48578;SDS011;34357;51.948;6.132;2024-02-21T03:54:57;23.90;;;10.15;;
48578;SDS011;34357;51.948;6.132;2024-02-21T03:57:22;21.25;;;9.77;;
48578;SDS011;34357;51.948;6.132;2024-02-21T03:59:51;23.45;;;9.82;;
48578;SDS011;34357;51.948;6.132;2024-02-21T04:02:17;29.63;;;10.02;;
48578;SDS011;34357;51.948;6.132;2024-02-21T04:04:43;27.00;;;10.40;;
48578;SDS011;34357;51.948;6.132;2024-02-21T04:07:15;21.23;;;8.85;;
48578;SDS011;34357;51.948;6.132;2024-02-21T04:09:41;29.63;;;8.90;;
48578;SDS011;34357;51.948;6.132;2024-02-21T04:12:08;29.88;;;9.20;;
48578;SDS011;34357;51.948;6.132;2024-02-21T04:14:34;29.55;;;10.50;;
48578;SDS011;34357;51.948;6.132;2024-02-21T04:17:01;23.60;;;9.38;;
48578;SDS011;34357;51.948;6.132;2024-02-21T04:19:26;29.98;;;9.60;;
48578;SDS011;34357;51.948;6.132;2024-02-21T04:21:52;24.65;;;8.70;;
48578;SDS011;34357;51.948;6.132;2024-02-21T04:24:18;24.70;;;9.15;;
48578;SDS011;34357;51.948;6.132;2024-02-21T04:26:43;28.08;;;9.85;;
48578;SDS011;34357;51.948;6.132;2024-02-21T04:29:09;25.48;;;9.60;;
48578;SDS011;34357;51.948;6.132;2024-02-21T04:31:35;26.17;;;9.63;;
48578;SDS011;34357;51.948;6.132;2024-02-21T04:34:01;21.30;;;9.10;;
48578;SDS011;34357;51.948;6.132;2024-02-21T04:36:28;24.75;;;10.40;;
48578;SDS011;34357;51.948;6.132;2024-02-21T04:38:54;19.92;;;9.77;;
48578;SDS011;34357;51.948;6.132;2024-02-21T04:41:19;26.70;;;10.80;;
48578;SDS011;34357;51.948;6.132;2024-02-21T04:43:45;19.15;;;9.90;;
48578;SDS011;34357;51.948;6.132;2024-02-21T04:46:12;19.25;;;8.80;;
48578;SDS011;34357;51.948;6.132;2024-02-21T04:48:39;26.88;;;10.43;;
48578;SDS011;34357;51.948;6.132;2024-02-21T04:51:04;24.52;;;10.15;;
48578;SDS011;34357;51.948;6.132;2024-02-21T04:53:30;26.40;;;9.55;;
48578;SDS011;34357;51.948;6.132;2024-02-21T04:55:56;26.38;;;10.23;;
48578;SDS011;34357;51.948;6.132;2024-02-21T04:58:21;23.27;;;9.50;;
48578;SDS011;34357;51.948;6.132;2024-02-21T05:00:47;24.58;;;9.95;;
48578;SDS011;34357;51.948;6.132;2024-02-21T05:03:13;20.17;;;10.25;;
48578;SDS011;34357;51.948;6.132;2024-02-21T05:05:38;24.67;;;10.00;;
48578;SDS011;34357;51.948;6.132;2024-02-21T05:08:04;20.58;;;10.07;;
48578;SDS011;34357;51.948;6.132;2024-02-21T05:10:30;24.85;;;11.00;;
48578;SDS011;34357;51.948;6.132;2024-02-21T05:12:56;25.05;;;10.68;;
48578;SDS011;34357;51.948;6.132;2024-02-21T05:15:22;23.85;;;10.05;;
48578;SDS011;34357;51.948;6.132;2024-02-21T05:17:47;23.55;;;9.93;;
48578;SDS011;34357;51.948;6.132;2024-02-21T05:20:13;24.67;;;10.48;;
48578;SDS011;34357;51.948;6.132;2024-02-21T05:22:39;24.50;;;10.60;;
48578;SDS011;34357;51.948;6.132;2024-02-21T05:25:05;18.88;;;11.23;;
48578;SDS011;34357;51.948;6.132;2024-02-21T05:27:31;19.55;;;10.70;;
48578;SDS011;34357;51.948;6.132;2024-02-21T05:29:56;29.20;;;12.00;;
48578;SDS011;34357;51.948;6.132;2024-02-21T05:32:23;21.73;;;10.73;;
48578;SDS011;34357;51.948;6.132;2024-02-21T05:34:49;20.83;;;9.73;;
48578;SDS011;34357;51.948;6.132;2024-02-21T05:37:16;21.52;;;10.40;;
48578;SDS011;34357;51.948;6.132;2024-02-21T05:39:41;29.15;;;11.50;;
48578;SDS011;34357;51.948;6.132;2024-02-21T05:42:07;26.80;;;11.05;;
48578;SDS011;34357;51.948;6.132;2024-02-21T05:44:33;26.70;;;10.57;;
48578;SDS011;34357;51.948;6.132;2024-02-21T05:46:58;20.08;;;10.43;;
48578;SDS011;34357;51.948;6.132;2024-02-21T05:49:24;24.30;;;11.57;;
48578;SDS011;34357;51.948;6.132;2024-02-21T05:51:50;20.85;;;10.57;;
48578;SDS011;34357;51.948;6.132;2024-02-21T05:54:15;21.08;;;10.88;;
48578;SDS011;34357;51.948;6.132;2024-02-21T05:56:47;23.27;;;10.70;;
48578;SDS011;34357;51.948;6.132;2024-02-21T05:59:13;20.35;;;10.77;;
48578;SDS011;34357;51.948;6.132;2024-02-21T06:01:39;21.83;;;10.23;;
48578;SDS011;34357;51.948;6.132;2024-02-21T06:04:05;26.58;;;11.35;;
48578;SDS011;34357;51.948;6.132;2024-02-21T06:06:30;20.45;;;10.93;;
48578;SDS011;34357;51.948;6.132;2024-02-21T06:08:56;20.75;;;10.15;;
48578;SDS011;34357;51.948;6.132;2024-02-21T06:11:23;22.02;;;9.68;;
48578;SDS011;34357;51.948;6.132;2024-02-21T06:13:49;21.83;;;10.00;;
48578;SDS011;34357;51.948;6.132;2024-02-21T06:16:15;20.35;;;9.68;;
48578;SDS011;34357;51.948;6.132;2024-02-21T06:18:40;19.90;;;8.30;;
48578;SDS011;34357;51.948;6.132;2024-02-21T06:21:06;21.25;;;8.50;;
48578;SDS011;34357;51.948;6.132;2024-02-21T06:23:32;20.88;;;9.38;;
48578;SDS011;34357;51.948;6.132;2024-02-21T06:25:58;22.77;;;8.95;;
48578;SDS011;34357;51.948;6.132;2024-02-21T06:28:24;20.10;;;9.77;;
48578;SDS011;34357;51.948;6.132;2024-02-21T06:30:49;21.35;;;10.60;;
48578;SDS011;34357;51.948;6.132;2024-02-21T06:33:15;20.33;;;11.02;;
48578;SDS011;34357;51.948;6.132;2024-02-21T06:35:41;19.00;;;8.35;;
48578;SDS011;34357;51.948;6.132;2024-02-21T06:38:08;25.88;;;10.48;;
48578;SDS011;34357;51.948;6.132;2024-02-21T06:40:33;28.67;;;11.75;;
48578;SDS011;34357;51.948;6.132;2024-02-21T06:43:04;22.65;;;11.73;;
48578;SDS011;34357;51.948;6.132;2024-02-21T06:45:30;25.73;;;11.25;;
48578;SDS011;34357;51.948;6.132;2024-02-21T06:47:55;27.75;;;11.90;;
48578;SDS011;34357;51.948;6.132;2024-02-21T06:50:21;23.67;;;10.55;;
48578;SDS011;34357;51.948;6.132;2024-02-21T06:52:47;29.75;;;10.95;;
48578;SDS011;34357;51.948;6.132;2024-02-21T06:55:13;22.85;;;10.30;;
48578;SDS011;34357;51.948;6.132;2024-02-21T06:57:38;28.20;;;10.82;;
48578;SDS011;34357;51.948;6.132;2024-02-21T07:00:04;28.45;;;11.63;;
48578;SDS011;34357;51.948;6.132;2024-02-21T07:02:33;24.67;;;10.95;;
48578;SDS011;34357;51.948;6.132;2024-02-21T07:04:59;24.70;;;11.05;;
48578;SDS011;34357;51.948;6.132;2024-02-21T07:07:25;24.30;;;11.45;;
48578;SDS011;34357;51.948;6.132;2024-02-21T07:09:50;28.02;;;12.07;;
48578;SDS011;34357;51.948;6.132;2024-02-21T07:12:16;33.28;;;13.23;;
48578;SDS011;34357;51.948;6.132;2024-02-21T07:14:42;22.83;;;11.68;;
48578;SDS011;34357;51.948;6.132;2024-02-21T07:17:08;26.73;;;12.73;;
48578;SDS011;34357;51.948;6.132;2024-02-21T07:19:33;31.85;;;13.30;;
48578;SDS011;34357;51.948;6.132;2024-02-21T07:22:00;27.30;;;13.02;;
48578;SDS011;34357;51.948;6.132;2024-02-21T07:24:26;24.77;;;11.88;;
48578;SDS011;34357;51.948;6.132;2024-02-21T07:26:52;29.35;;;13.93;;
48578;SDS011;34357;51.948;6.132;2024-02-21T07:29:18;30.50;;;12.85;;
48578;SDS011;34357;51.948;6.132;2024-02-21T07:31:44;27.38;;;12.18;;
48578;SDS011;34357;51.948;6.132;2024-02-21T07:34:10;28.65;;;13.27;;
48578;SDS011;34357;51.948;6.132;2024-02-21T07:36:36;28.85;;;13.90;;
48578;SDS011;34357;51.948;6.132;2024-02-21T07:39:04;32.50;;;14.40;;
48578;SDS011;34357;51.948;6.132;2024-02-21T07:41:31;33.15;;;13.27;;
48578;SDS011;34357;51.948;6.132;2024-02-21T07:43:57;22.15;;;11.80;;
48578;SDS011;34357;51.948;6.132;2024-02-21T07:46:23;28.10;;;12.43;;
48578;SDS011;34357;51.948;6.132;2024-02-21T07:48:50;22.30;;;12.10;;
48578;SDS011;34357;51.948;6.132;2024-02-21T07:51:16;25.70;;;12.25;;
48578;SDS011;34357;51.948;6.132;2024-02-21T07:53:43;21.25;;;11.15;;
48578;SDS011;34357;51.948;6.132;2024-02-21T07:56:14;23.85;;;11.65;;
48578;SDS011;34357;51.948;6.132;2024-02-21T07:58:40;24.40;;;11.80;;
48578;SDS011;34357;51.948;6.132;2024-02-21T08:01:07;26.98;;;12.73;;
48578;SDS011;34357;51.948;6.132;2024-02-21T08:03:33;23.50;;;11.40;;
48578;SDS011;34357;51.948;6.132;2024-02-21T08:05:59;21.95;;;11.80;;
48578;SDS011;34357;51.948;6.132;2024-02-21T08:08:25;24.80;;;11.20;;
48578;SDS011;34357;51.948;6.132;2024-02-21T08:10:51;27.25;;;11.90;;
48578;SDS011;34357;51.948;6.132;2024-02-21T08:13:17;24.83;;;10.70;;
48578;SDS011;34357;51.948;6.132;2024-02-21T08:15:43;31.52;;;11.98;;
48578;SDS011;34357;51.948;6.132;2024-02-21T08:18:08;22.75;;;10.63;;
48578;SDS011;34357;51.948;6.132;2024-02-21T08:20:34;25.67;;;11.38;;
48578;SDS011;34357;51.948;6.132;2024-02-21T08:23:00;23.83;;;11.82;;
48578;SDS011;34357;51.948;6.132;2024-02-21T08:25:26;25.88;;;11.75;;
48578;SDS011;34357;51.948;6.132;2024-02-21T08:27:55;27.60;;;12.32;;
48578;SDS011;34357;51.948;6.132;2024-02-21T08:30:22;23.00;;;12.07;;
48578;SDS011;34357;51.948;6.132;2024-02-21T08:32:48;23.25;;;11.07;;
48578;SDS011;34357;51.948;6.132;2024-02-21T08:35:13;22.80;;;11.50;;
48578;SDS011;34357;51.948;6.132;2024-02-21T08:37:39;23.02;;;11.88;;
48578;SDS011;34357;51.948;6.132;2024-02-21T08:40:05;29.40;;;11.90;;
48578;SDS011;34357;51.948;6.132;2024-02-21T08:42:34;26.02;;;12.73;;
48578;SDS011;34357;51.948;6.132;2024-02-21T08:45:04;27.77;;;12.90;;
48578;SDS011;34357;51.948;6.132;2024-02-21T08:47:30;27.58;;;12.13;;
48578;SDS011;34357;51.948;6.132;2024-02-21T08:49:56;22.90;;;12.30;;
48578;SDS011;34357;51.948;6.132;2024-02-21T08:52:22;26.80;;;12.15;;
48578;SDS011;34357;51.948;6.132;2024-02-21T08:54:47;20.52;;;11.38;;
48578;SDS011;34357;51.948;6.132;2024-02-21T08:57:16;19.30;;;9.50;;
48578;SDS011;34357;51.948;6.132;2024-02-21T08:59:44;26.80;;;12.10;;
48578;SDS011;34357;51.948;6.132;2024-02-21T09:02:09;21.33;;;11.27;;
48578;SDS011;34357;51.948;6.132;2024-02-21T09:04:35;22.35;;;11.77;;
48578;SDS011;34357;51.948;6.132;2024-02-21T09:07:01;23.83;;;11.23;;
48578;SDS011;34357;51.948;6.132;2024-02-21T09:09:26;26.08;;;11.57;;
48578;SDS011;34357;51.948;6.132;2024-02-21T09:11:53;23.75;;;10.25;;
48578;SDS011;34357;51.948;6.132;2024-02-21T09:14:19;28.55;;;10.82;;
48578;SDS011;34357;51.948;6.132;2024-02-21T09:16:45;21.70;;;10.35;;
48578;SDS011;34357;51.948;6.132;2024-02-21T09:19:11;20.10;;;10.00;;
48578;SDS011;34357;51.948;6.132;2024-02-21T09:21:37;21.35;;;9.20;;
48578;SDS011;34357;51.948;6.132;2024-02-21T09:24:03;20.13;;;9.95;;
48578;SDS011;34357;51.948;6.132;2024-02-21T09:26:31;16.23;;;8.45;;
48578;SDS011;34357;51.948;6.132;2024-02-21T09:28:57;19.55;;;9.55;;
48578;SDS011;34357;51.948;6.132;2024-02-21T09:31:23;15.45;;;8.88;;
48578;SDS011;34357;51.948;6.132;2024-02-21T09:33:49;17.00;;;9.50;;
48578;SDS011;34357;51.948;6.132;2024-02-21T09:36:14;16.02;;;9.80;;
48578;SDS011;34357;51.948;6.132;2024-02-21T09:38:40;20.42;;;9.13;;
48578;SDS011;34357;51.948;6.132;2024-02-21T09:43:50;12.38;;;8.40;;
48578;SDS011;34357;51.948;6.132;2024-02-21T09:46:19;14.75;;;8.18;;
48578;SDS011;34357;51.948;6.132;2024-02-21T09:48:58;14.82;;;8.57;;
48578;SDS011;34357;51.948;6.132;2024-02-21T09:51:42;11.05;;;7.07;;
48578;SDS011;34357;51.948;6.132;2024-02-21T09:54:10;16.42;;;8.63;;
48578;SDS011;34357;51.948;6.132;2024-02-21T09:56:35;16.90;;;7.97;;
48578;SDS011;34357;51.948;6.132;2024-02-21T09:59:02;14.65;;;8.98;;
48578;SDS011;34357;51.948;6.132;2024-02-21T10:01:30;14.80;;;8.50;;
48578;SDS011;34357;51.948;6.132;2024-02-21T10:03:57;16.70;;;8.95;;
48578;SDS011;34357;51.948;6.132;2024-02-21T10:06:23;15.10;;;8.23;;
48578;SDS011;34357;51.948;6.132;2024-02-21T10:08:52;14.98;;;9.07;;
48578;SDS011;34357;51.948;6.132;2024-02-21T10:11:22;13.50;;;7.68;;
48578;SDS011;34357;51.948;6.132;2024-02-21T10:13:48;15.00;;;9.07;;
48578;SDS011;34357;51.948;6.132;2024-02-21T10:16:14;16.73;;;8.07;;
48578;SDS011;34357;51.948;6.132;2024-02-21T10:18:40;19.27;;;8.10;;
48578;SDS011;34357;51.948;6.132;2024-02-21T10:21:07;11.57;;;7.38;;
48578;SDS011;34357;51.948;6.132;2024-02-21T10:23:48;18.50;;;8.32;;
48578;SDS011;34357;51.948;6.132;2024-02-21T10:26:16;12.10;;;7.40;;
48578;SDS011;34357;51.948;6.132;2024-02-21T10:28:43;13.57;;;7.55;;
48578;SDS011;34357;51.948;6.132;2024-02-21T10:31:11;10.48;;;6.93;;
48578;SDS011;34357;51.948;6.132;2024-02-21T10:33:53;12.75;;;6.07;;
48578;SDS011;34357;51.948;6.132;2024-02-21T10:36:22;15.60;;;6.20;;
48578;SDS011;34357;51.948;6.132;2024-02-21T10:38:49;10.05;;;6.25;;
48578;SDS011;34357;51.948;6.132;2024-02-21T10:41:15;11.80;;;5.85;;
48578;SDS011;34357;51.948;6.132;2024-02-21T10:43:46;10.90;;;6.40;;
48578;SDS011;34357;51.948;6.132;2024-02-21T10:46:18;11.38;;;6.13;;
48578;SDS011;34357;51.948;6.132;2024-02-21T10:48:46;12.10;;;6.88;;
48578;SDS011;34357;51.948;6.132;2024-02-21T10:51:17;11.75;;;7.97;;
48578;SDS011;34357;51.948;6.132;2024-02-21T10:54:01;12.77;;;7.45;;
48578;SDS011;34357;51.948;6.132;2024-02-21T10:56:37;14.15;;;7.57;;
48578;SDS011;34357;51.948;6.132;2024-02-21T10:59:05;11.48;;;7.78;;
48578;SDS011;34357;51.948;6.132;2024-02-21T11:01:32;13.68;;;8.07;;
48578;SDS011;34357;51.948;6.132;2024-02-21T11:04:05;15.05;;;8.45;;
48578;SDS011;34357;51.948;6.132;2024-02-21T11:06:32;15.57;;;7.57;;
48578;SDS011;34357;51.948;6.132;2024-02-21T11:11:28;11.57;;;7.15;;
48578;SDS011;34357;51.948;6.132;2024-02-21T11:14:03;12.68;;;8.32;;
48578;SDS011;34357;51.948;6.132;2024-02-21T11:16:34;14.93;;;7.60;;
48578;SDS011;34357;51.948;6.132;2024-02-21T11:19:05;14.75;;;7.45;;
48578;SDS011;34357;51.948;6.132;2024-02-21T11:21:36;14.88;;;7.90;;
48578;SDS011;34357;51.948;6.132;2024-02-21T11:24:05;15.93;;;7.45;;
48578;SDS011;34357;51.948;6.132;2024-02-21T11:26:32;13.45;;;7.68;;
48578;SDS011;34357;51.948;6.132;2024-02-21T11:28:58;12.30;;;6.78;;
48578;SDS011;34357;51.948;6.132;2024-02-21T11:31:25;14.77;;;7.30;;
48578;SDS011;34357;51.948;6.132;2024-02-21T11:33:54;11.93;;;6.57;;
48578;SDS011;34357;51.948;6.132;2024-02-21T11:36:26;14.80;;;7.13;;
48578;SDS011;34357;51.948;6.132;2024-02-21T11:38:53;15.68;;;7.35;;
48578;SDS011;34357;51.948;6.132;2024-02-21T11:41:19;12.73;;;7.22;;
48578;SDS011;34357;51.948;6.132;2024-02-21T11:43:46;17.00;;;7.50;;
48578;SDS011;34357;51.948;6.132;2024-02-21T11:46:13;15.35;;;7.32;;
48578;SDS011;34357;51.948;6.132;2024-02-21T11:48:40;17.00;;;7.45;;
48578;SDS011;34357;51.948;6.132;2024-02-21T11:51:09;12.90;;;6.50;;
48578;SDS011;34357;51.948;6.132;2024-02-21T11:53:36;18.55;;;7.03;;
48578;SDS011;34357;51.948;6.132;2024-02-21T11:56:02;16.10;;;6.53;;
48578;SDS011;34357;51.948;6.132;2024-02-21T11:58:28;16.25;;;6.47;;
48578;SDS011;34357;51.948;6.132;2024-02-21T12:00:54;14.95;;;6.30;;
48578;SDS011;34357;51.948;6.132;2024-02-21T12:03:20;13.57;;;5.68;;
48578;SDS011;34357;51.948;6.132;2024-02-21T12:05:46;12.80;;;6.72;;
48578;SDS011;34357;51.948;6.132;2024-02-21T12:08:12;14.68;;;6.78;;
48578;SDS011;34357;51.948;6.132;2024-02-21T12:10:37;13.70;;;5.18;;
48578;SDS011;34357;51.948;6.132;2024-02-21T12:13:09;15.73;;;6.28;;
48578;SDS011;34357;51.948;6.132;2024-02-21T12:15:35;14.02;;;6.25;;
48578;SDS011;34357;51.948;6.132;2024-02-21T12:18:01;21.13;;;5.90;;
48578;SDS011;34357;51.948;6.132;2024-02-21T12:20:27;15.57;;;5.85;;
48578;SDS011;34357;51.948;6.132;2024-02-21T12:22:53;14.02;;;5.85;;
48578;SDS011;34357;51.948;6.132;2024-02-21T12:25:23;14.10;;;5.80;;
48578;SDS011;34357;51.948;6.132;2024-02-21T12:27:51;17.67;;;7.23;;
48578;SDS011;34357;51.948;6.132;2024-02-21T12:30:17;15.35;;;6.10;;
48578;SDS011;34357;51.948;6.132;2024-02-21T12:32:42;16.33;;;6.60;;
48578;SDS011;34357;51.948;6.132;2024-02-21T12:35:08;12.70;;;6.00;;
48578;SDS011;34357;51.948;6.132;2024-02-21T12:37:34;13.07;;;5.80;;
48578;SDS011;34357;51.948;6.132;2024-02-21T12:40:00;15.48;;;6.07;;
48578;SDS011;34357;51.948;6.132;2024-02-21T12:42:26;14.85;;;6.50;;
48578;SDS011;34357;51.948;6.132;2024-02-21T12:44:53;16.50;;;6.03;;
48578;SDS011;34357;51.948;6.132;2024-02-21T12:47:19;15.05;;;5.93;;
48578;SDS011;34357;51.948;6.132;2024-02-21T12:49:48;11.38;;;5.72;;
48578;SDS011;34357;51.948;6.132;2024-02-21T12:52:14;8.27;;;3.50;;
48578;SDS011;34357;51.948;6.132;2024-02-21T12:54:41;15.68;;;5.70;;
48578;SDS011;34357;51.948;6.132;2024-02-21T12:57:07;15.82;;;6.50;;
48578;SDS011;34357;51.948;6.132;2024-02-21T12:59:33;16.33;;;6.18;;
48578;SDS011;34357;51.948;6.132;2024-02-21T13:02:02;11.75;;;5.32;;
48578;SDS011;34357;51.948;6.132;2024-02-21T13:04:28;11.85;;;5.40;;
48578;SDS011;34357;51.948;6.132;2024-02-21T13:06:53;13.27;;;5.82;;
48578;SDS011;34357;51.948;6.132;2024-02-21T13:09:20;12.50;;;5.10;;
48578;SDS011;34357;51.948;6.132;2024-02-21T13:11:46;10.07;;;5.03;;
48578;SDS011;34357;51.948;6.132;2024-02-21T13:14:12;13.45;;;5.00;;
48578;SDS011;34357;51.948;6.132;2024-02-21T13:16:38;10.38;;;5.43;;
48578;SDS011;34357;51.948;6.132;2024-02-21T13:19:06;12.50;;;5.10;;
48578;SDS011;34357;51.948;6.132;2024-02-21T13:21:36;13.77;;;5.57;;
48578;SDS011;34357;51.948;6.132;2024-02-21T13:24:02;9.85;;;5.50;;
48578;SDS011;34357;51.948;6.132;2024-02-21T13:26:28;13.20;;;5.55;;
48578;SDS011;34357;51.948;6.132;2024-02-21T13:28:53;13.40;;;5.50;;
48578;SDS011;34357;51.948;6.132;2024-02-21T13:31:19;10.77;;;5.32;;
48578;SDS011;34357;51.948;6.132;2024-02-21T13:33:45;14.50;;;5.25;;
48578;SDS011;34357;51.948;6.132;2024-02-21T13:36:11;12.77;;;4.78;;
48578;SDS011;34357;51.948;6.132;2024-02-21T13:38:37;12.30;;;5.60;;
48578;SDS011;34357;51.948;6.132;2024-02-21T13:41:04;18.85;;;7.07;;
48578;SDS011;34357;51.948;6.132;2024-02-21T13:43:31;13.05;;;5.00;;
48578;SDS011;34357;51.948;6.132;2024-02-21T13:46:02;13.27;;;5.30;;
48578;SDS011;34357;51.948;6.132;2024-02-21T13:48:30;18.67;;;6.22;;
48578;SDS011;34357;51.948;6.132;2024-02-21T13:50:56;14.30;;;5.70;;
48578;SDS011;34357;51.948;6.132;2024-02-21T13:53:22;14.93;;;5.40;;
48578;SDS011;34357;51.948;6.132;2024-02-21T13:55:48;13.75;;;5.13;;
48578;SDS011;34357;51.948;6.132;2024-02-21T13:58:15;14.10;;;5.00;;
48578;SDS011;34357;51.948;6.132;2024-02-21T14:00:42;12.00;;;5.15;;
48578;SDS011;34357;51.948;6.132;2024-02-21T14:03:08;15.45;;;5.00;;
48578;SDS011;34357;51.948;6.132;2024-02-21T14:05:34;14.15;;;4.75;;
48578;SDS011;34357;51.948;6.132;2024-02-21T14:08:00;11.73;;;4.93;;
48578;SDS011;34357;51.948;6.132;2024-02-21T14:10:26;11.80;;;5.28;;
48578;SDS011;34357;51.948;6.132;2024-02-21T14:12:52;11.02;;;4.18;;
48578;SDS011;34357;51.948;6.132;2024-02-21T14:15:18;13.77;;;4.57;;
48578;SDS011;34357;51.948;6.132;2024-02-21T14:17:44;14.60;;;5.45;;
48578;SDS011;34357;51.948;6.132;2024-02-21T14:20:10;10.18;;;4.88;;
48578;SDS011;34357;51.948;6.132;2024-02-21T14:22:36;15.10;;;5.35;;
48578;SDS011;34357;51.948;6.132;2024-02-21T14:25:03;17.38;;;5.47;;
48578;SDS011;34357;51.948;6.132;2024-02-21T14:27:32;12.48;;;5.10;;
48578;SDS011;34357;51.948;6.132;2024-02-21T14:29:58;13.07;;;4.88;;